Elton, Pennsylvania
Current Conditions -  °F | °C
As of 1:27 AM on Wednesday 22 Oct 2014 (Local Time) from KJST Reporting Station
Moderate Rain Moderate Rain  
Wind Chill: 41°   Ceiling: 200
Heat Index: 45°   Visibility: 0.25mi
Dew Point: 43°   Wind: 8mph
Humidity: 93%   Direction: 340°NNW
Pressure: 29.96"   Gusts: NA
Location:  40.28°N, 78.8°W
Report Text: KJST 220527Z AUTO 34007KT 1/4SM RA FG VV002 07/06 A2996 RMK AO2 P0002 T00720061
Loading
Personal Weather Stations






























Interactive Weather Map
Tropical Storm Tracking
New forecast layout! Learn more

10-Day Weather Forecast

Advertisements
Track Severe Weather on mobile